Terminal Aerodrome Forecast
Issued by NWS

Home | Current Version | Previous Version | Text Only | Print | Product List | Glossary On
Versions: 1 2 3 4 5 6 7 8 9 10 11 12
000
FTUS46 KLOX 240532
TAFOXR
TAF
KOXR 240532Z 2406/2506 VRB03KT P6SM SKC
     FM240800 10008KT P6SM SKC
     FM241200 08012G22KT P6SM SKC
     FM241700 08025G35KT P6SM SKC
     FM242100 07025G30KT P6SM SKC
     FM250000 35010KT P6SM SKC=

USA.gov is the U.S. government's official web portal to all federal, state and local government web resources and services.